createdAt,value
2023-05-07T00:02:07.650Z,3.60
2023-05-07T00:07:05.605Z,3.80
2023-05-07T00:12:06.281Z,4.05
2023-05-07T00:17:07.969Z,3.75
2023-05-07T00:22:06.875Z,4.10
2023-05-07T00:27:07.492Z,4.88
2023-05-07T00:32:06.405Z,5.20
2023-05-07T00:37:06.000Z,5.60
2023-05-07T00:42:17.459Z,5.70
2023-05-07T00:47:20.364Z,5.47
2023-05-07T00:52:20.735Z,5.57
2023-05-07T00:57:22.757Z,5.50
2023-05-07T01:02:24.354Z,5.93
2023-05-07T01:07:24.168Z,5.30
2023-05-07T01:12:36.519Z,6.03
2023-05-07T01:18:05.336Z,4.65
2023-05-07T01:23:08.675Z,5.70
2023-05-07T01:28:14.710Z,5.07
2023-05-07T01:33:20.707Z,5.20
2023-05-07T01:43:18.130Z,4.60
2023-05-07T01:48:19.784Z,5.00
2023-05-07T01:53:26.097Z,4.85
2023-05-07T01:58:24.802Z,4.60
2023-05-07T02:03:24.413Z,5.80
2023-05-07T02:08:32.924Z,4.65
2023-05-07T02:13:38.315Z,4.32
2023-05-07T02:18:36.856Z,4.22
2023-05-07T02:23:36.088Z,4.75
2023-05-07T02:28:39.201Z,5.70
2023-05-07T02:33:39.654Z,6.32
2023-05-07T02:38:43.292Z,5.82
2023-05-07T02:43:44.789Z,6.35
2023-05-07T02:48:44.561Z,6.15
2023-05-07T02:53:47.523Z,5.30
2023-05-07T02:58:46.583Z,5.65
2023-05-07T03:03:47.185Z,5.38
2023-05-07T03:08:49.628Z,5.43
2023-05-07T03:13:51.248Z,5.28
2023-05-07T03:18:53.825Z,5.03
2023-05-07T03:24:02.715Z,5.45
2023-05-07T03:29:01.860Z,4.95
2023-05-07T03:34:03.399Z,5.22
2023-05-07T03:39:09.103Z,5.55
2023-05-07T03:44:19.341Z,5.82
2023-05-07T03:49:17.787Z,5.55
2023-05-07T03:54:19.517Z,4.90
2023-05-07T03:59:21.407Z,4.22
2023-05-07T04:04:23.531Z,4.63
2023-05-07T04:09:23.903Z,4.90
2023-05-07T04:14:31.346Z,4.03
2023-05-07T04:19:36.331Z,4.00
2023-05-07T04:24:35.577Z,3.20
2023-05-07T04:29:47.852Z,3.58
2023-05-07T04:34:49.633Z,3.70
2023-05-07T04:39:49.025Z,4.38
2023-05-07T04:44:50.602Z,4.35
2023-05-07T04:49:53.314Z,4.82
2023-05-07T04:54:59.334Z,4.75
2023-05-07T05:00:06.374Z,4.03
2023-05-07T05:05:08.875Z,4.45
2023-05-07T05:10:08.770Z,4.73
2023-05-07T05:15:28.362Z,5.55
2023-05-07T05:20:31.300Z,5.63
2023-05-07T05:25:31.561Z,6.30
2023-05-07T05:31:17.178Z,6.30
2023-05-07T05:36:14.311Z,6.63
2023-05-07T05:41:17.942Z,6.15
2023-05-07T05:46:17.832Z,6.20
2023-05-07T05:51:26.396Z,6.93
2023-05-07T05:56:27.631Z,7.03
2023-05-07T06:01:28.478Z,6.72
2023-05-07T06:06:32.843Z,5.85
2023-05-07T06:11:36.376Z,6.40
2023-05-07T06:16:38.012Z,6.18
2023-05-07T06:21:41.723Z,6.35
2023-05-07T06:26:40.673Z,6.40
2023-05-07T06:31:44.232Z,6.40
2023-05-07T06:36:47.120Z,7.43
2023-05-07T06:41:57.498Z,6.82
2023-05-07T06:47:08.629Z,4.95
2023-05-07T06:57:12.455Z,3.85
2023-05-07T07:02:12.390Z,3.40
2023-05-07T07:07:22.321Z,1.83
2023-05-07T07:12:26.125Z,1.98
2023-05-07T07:17:27.989Z,2.50
2023-05-07T07:22:27.822Z,1.65
2023-05-07T07:27:25.393Z,1.90
2023-05-07T07:32:30.296Z,1.75
2023-05-07T07:37:32.345Z,2.05
2023-05-07T07:42:33.135Z,1.90
2023-05-07T07:47:35.433Z,2.20
2023-05-07T07:52:37.978Z,2.00
2023-05-07T07:57:39.567Z,2.33
2023-05-07T08:02:46.696Z,2.08
2023-05-07T08:07:56.861Z,1.63
2023-05-07T08:12:59.283Z,1.80
2023-05-07T08:18:01.510Z,1.60
2023-05-07T08:23:02.322Z,1.75
2023-05-07T08:28:00.229Z,2.33
2023-05-07T08:33:02.742Z,2.53
2023-05-07T08:38:11.515Z,1.75
2023-05-07T08:43:16.978Z,2.08
2023-05-07T08:48:19.064Z,2.30
2023-05-07T08:53:38.851Z,1.70
2023-05-07T08:58:39.345Z,2.70
2023-05-07T09:03:40.689Z,2.20
2023-05-07T09:09:17.863Z,1.75
2023-05-07T09:14:36.862Z,2.00
2023-05-07T09:20:11.426Z,2.05
2023-05-07T09:25:13.645Z,1.55
2023-05-07T09:30:12.836Z,2.03
2023-05-07T09:35:24.295Z,1.55
2023-05-07T09:40:30.659Z,1.50
2023-05-07T09:51:17.137Z,2.00
2023-05-07T09:56:17.986Z,1.55
2023-05-07T10:01:38.618Z,1.48
2023-05-07T10:06:40.011Z,1.33
2023-05-07T10:11:39.181Z,1.30
2023-05-07T10:16:38.432Z,1.40
2023-05-07T10:21:45.909Z,1.50
2023-05-07T10:26:48.818Z,1.55
2023-05-07T10:32:02.547Z,1.63
2023-05-07T10:37:15.368Z,1.45
2023-05-07T10:42:20.876Z,1.60
2023-05-07T10:47:25.497Z,1.45
2023-05-07T10:52:32.123Z,2.17
2023-05-07T10:57:54.928Z,1.67
2023-05-07T11:03:09.384Z,1.58
2023-05-07T11:08:49.169Z,1.30
2023-05-07T11:14:16.902Z,1.58
2023-05-07T11:19:43.064Z,1.33
2023-05-07T11:24:44.672Z,1.40
2023-05-07T11:29:58.879Z,1.20
2023-05-07T11:35:03.093Z,1.38
2023-05-07T11:40:10.446Z,1.50
2023-05-07T11:45:14.969Z,1.42
2023-05-07T11:50:16.227Z,1.70
2023-05-07T11:55:24.623Z,1.70
2023-05-07T12:00:26.681Z,1.83
2023-05-07T12:05:35.226Z,1.20
2023-05-07T12:10:35.647Z,1.73
2023-05-07T12:15:37.248Z,1.83
2023-05-07T12:26:29.653Z,1.70
2023-05-07T12:31:34.440Z,1.73
2023-05-07T12:43:01.889Z,1.42
2023-05-07T12:48:04.155Z,1.60
2023-05-07T12:58:48.060Z,1.55
2023-05-07T13:03:53.157Z,1.52
2023-05-07T13:08:59.648Z,1.80
2023-05-07T13:14:33.373Z,1.55
2023-05-07T13:19:33.941Z,1.70
2023-05-07T13:30:12.477Z,1.70
2023-05-07T13:35:22.864Z,1.70
2023-05-07T13:40:30.938Z,1.63
2023-05-07T13:45:32.500Z,1.83
2023-05-07T13:50:36.122Z,1.80
2023-05-07T13:55:41.274Z,1.77
2023-05-07T14:00:45.968Z,2.08
2023-05-07T14:05:43.734Z,2.10
2023-05-07T14:10:44.115Z,2.10
2023-05-07T14:15:51.654Z,1.50
2023-05-07T14:20:57.429Z,1.60
2023-05-07T14:25:58.513Z,1.70
2023-05-07T14:31:15.949Z,1.73
2023-05-07T14:36:25.700Z,1.88
2023-05-07T14:46:52.106Z,2.05
2023-05-07T14:52:01.678Z,1.27
2023-05-07T14:57:13.160Z,1.52
2023-05-07T15:02:21.395Z,1.95
2023-05-07T15:07:21.750Z,1.60
2023-05-07T15:12:34.077Z,1.73
2023-05-07T15:17:33.474Z,2.22
2023-05-07T15:22:37.552Z,1.87
2023-05-07T15:27:39.168Z,1.80
2023-05-07T15:32:51.774Z,1.83
2023-05-07T15:37:56.664Z,1.73
2023-05-07T15:42:59.539Z,1.70
2023-05-07T15:48:04.039Z,2.17
2023-05-07T15:53:09.852Z,1.20
2023-05-07T16:04:08.513Z,2.15
2023-05-07T16:09:10.267Z,1.63
2023-05-07T16:14:13.313Z,2.00
2023-05-07T16:19:14.610Z,2.10
2023-05-07T16:24:15.987Z,1.70
2023-05-07T16:29:14.748Z,2.50
2023-05-07T16:34:27.212Z,2.47
2023-05-07T16:39:28.097Z,2.10
2023-05-07T16:44:32.553Z,2.20
2023-05-07T16:49:35.623Z,2.05
2023-05-07T16:54:39.903Z,2.17
2023-05-07T16:59:47.710Z,2.17
2023-05-07T17:04:49.516Z,2.00
2023-05-07T17:09:50.833Z,2.20
2023-05-07T17:14:54.253Z,2.67
2023-05-07T17:19:55.666Z,2.78
2023-05-07T17:24:55.640Z,2.30
2023-05-07T17:29:55.045Z,3.25
2023-05-07T17:34:57.951Z,3.42
2023-05-07T17:39:57.743Z,3.45
2023-05-07T17:44:56.474Z,3.58
2023-05-07T17:49:57.544Z,5.82
2023-05-07T17:54:59.092Z,4.72
2023-05-07T18:00:05.154Z,3.65
2023-05-07T18:05:07.033Z,3.90
2023-05-07T18:10:08.416Z,3.80
2023-05-07T18:15:09.799Z,3.75
2023-05-07T18:20:20.644Z,4.10
2023-05-07T18:25:22.663Z,3.60
2023-05-07T18:30:26.109Z,3.47
2023-05-07T18:35:32.529Z,3.50
2023-05-07T18:41:12.493Z,3.90
2023-05-07T18:53:11.073Z,2.95
2023-05-07T19:04:51.347Z,3.58
2023-05-07T19:10:04.330Z,3.38
2023-05-07T19:21:38.058Z,3.72
2023-05-07T19:26:54.026Z,3.60
2023-05-07T19:42:30.109Z,2.00
2023-05-07T19:47:31.767Z,1.98
2023-05-07T19:52:42.707Z,2.25
2023-05-07T19:57:46.245Z,2.20
2023-05-07T20:02:47.375Z,2.08
2023-05-07T20:07:51.694Z,2.53
2023-05-07T20:12:54.730Z,2.13
2023-05-07T20:17:55.623Z,2.28
2023-05-07T20:22:54.153Z,2.22
2023-05-07T20:27:52.876Z,1.73
2023-05-07T20:32:54.161Z,1.83
2023-05-07T20:37:56.631Z,2.13
2023-05-07T20:42:54.678Z,2.03
2023-05-07T20:47:54.009Z,1.95
2023-05-07T20:52:57.311Z,1.83
2023-05-07T20:58:07.389Z,1.95
2023-05-07T21:03:47.790Z,2.10
2023-05-07T21:08:47.661Z,1.98
2023-05-07T21:13:53.591Z,2.10
2023-05-07T21:18:55.672Z,2.05
2023-05-07T21:29:43.288Z,2.08
2023-05-07T21:34:42.964Z,1.95
2023-05-07T21:39:43.983Z,1.60
2023-05-07T21:44:45.537Z,1.70
2023-05-07T21:49:47.314Z,1.92
2023-05-07T21:54:44.895Z,1.90
2023-05-07T21:59:47.117Z,1.70
2023-05-07T22:04:46.227Z,1.70
2023-05-07T22:09:46.371Z,1.55
2023-05-07T22:14:44.595Z,1.80
2023-05-07T22:19:45.374Z,2.00
2023-05-07T22:24:46.747Z,1.95
2023-05-07T22:29:45.493Z,2.40
2023-05-07T22:34:46.563Z,1.88
2023-05-07T22:39:48.563Z,1.70
2023-05-07T22:44:48.492Z,1.50
2023-05-07T22:49:46.846Z,1.50
2023-05-07T22:54:45.408Z,1.42
2023-05-07T22:59:47.226Z,1.60
2023-05-07T23:04:48.367Z,1.90
2023-05-07T23:09:46.259Z,1.48
2023-05-07T23:14:47.770Z,1.48
2023-05-07T23:19:46.269Z,1.73
2023-05-07T23:24:45.911Z,1.40
2023-05-07T23:29:48.055Z,1.60
2023-05-07T23:34:55.580Z,1.63
2023-05-07T23:39:57.770Z,1.58
2023-05-07T23:44:56.232Z,1.48
2023-05-07T23:49:58.099Z,1.40
2023-05-07T23:54:59.477Z,1.63
